Time;durP1;ratioP1;P1;durP2;ratioP2;P2;SDS_P1;SDS_P2;PMS_P1;PMS_P2;Temp;Humidity;BMP_temperature;BMP_pressure;BME280_temperature;BME280_humidity;BME280_pressure;Samples;Min_cycle;Max_cycle;Signal;HPM_P1;HPM_P2
2022/04/16 00:04:30;;;;;;;8.45;5.37;;;18.20;66.40;;;;;;10980602;32;20375;-69
2022/04/16 00:11:33;;;;;;;8.18;5.40;;;18.10;66.60;;;;;;10981134;32;20031;-69
2022/04/16 00:17:36;;;;;;;8.32;6.40;;;18.10;66.60;;;;;;10824624;32;20059;-69
2022/04/16 00:23:41;;;;;;;7.80;5.43;;;18.00;66.70;;;;;;10823340;32;20024;-70
2022/04/16 00:30:03;;;;;;;9.68;6.30;;;18.10;67.10;;;;;;10822658;32;20047;-70
2022/04/16 00:36:05;;;;;;;7.43;5.90;;;18.20;67.00;;;;;;10826277;32;20039;-70
2022/04/16 00:42:07;;;;;;;7.28;5.65;;;18.00;67.00;;;;;;10826310;32;20032;-70
2022/04/16 00:48:09;;;;;;;7.47;5.78;;;17.90;67.10;;;;;;10825863;32;20020;-69
2022/04/16 00:54:12;;;;;;;8.10;5.87;;;17.80;67.20;;;;;;10965397;32;20022;-69
2022/04/16 01:00:14;;;;;;;7.70;5.07;;;17.60;67.50;;;;;;10979762;32;20080;-70
2022/04/16 01:06:17;;;;;;;9.00;6.28;;;17.60;67.70;;;;;;10979554;32;20334;-69
2022/04/16 01:12:19;;;;;;;9.23;5.55;;;17.70;67.60;;;;;;10985175;27;20022;-70
2022/04/16 01:18:21;;;;;;;7.93;5.90;;;17.60;67.80;;;;;;10978821;32;20060;-70
2022/04/16 01:24:23;;;;;;;8.02;5.07;;;17.50;67.80;;;;;;10965714;32;20084;-70
2022/04/16 01:30:26;;;;;;;8.88;7.70;;;17.50;67.90;;;;;;10979066;32;20027;-70
2022/04/16 01:36:30;;;;;;;9.95;8.10;;;17.50;68.60;;;;;;10977136;32;20407;-70
2022/04/16 01:42:34;;;;;;;8.70;7.68;;;17.60;68.20;;;;;;10978769;32;20022;-70
2022/04/16 01:48:36;;;;;;;8.52;6.10;;;17.60;67.40;;;;;;10975985;32;20031;-70
2022/04/16 01:54:53;;;;;;;7.37;5.62;;;17.30;67.80;;;;;;10975110;32;20035;-70
2022/04/16 02:00:56;;;;;;;12.00;7.95;;;17.30;68.10;;;;;;10972220;32;20014;-70
2022/04/16 02:06:58;;;;;;;10.48;7.15;;;17.30;67.90;;;;;;10985878;32;20046;-69
2022/04/16 02:13:00;;;;;;;9.05;7.05;;;17.20;67.80;;;;;;10984385;32;20022;-70
2022/04/16 02:19:03;;;;;;;9.93;6.20;;;17.10;68.00;;;;;;10983519;32;20089;-70
2022/04/16 02:25:13;;;;;;;7.28;5.12;;;16.90;68.20;;;;;;10985040;32;20022;-70
2022/04/16 02:31:15;;;;;;;8.10;5.78;;;16.80;68.60;;;;;;10971363;32;20049;-70
2022/04/16 02:37:17;;;;;;;7.93;5.80;;;16.90;68.50;;;;;;10980268;32;20385;-70
2022/04/16 02:43:19;;;;;;;7.72;5.72;;;16.90;68.80;;;;;;10984558;32;20026;-70
2022/04/16 02:49:21;;;;;;;9.93;4.97;;;16.90;69.00;;;;;;10984203;32;20338;-71
2022/04/16 02:55:23;;;;;;;9.63;6.00;;;16.80;68.80;;;;;;10984007;32;20022;-70
2022/04/16 03:01:25;;;;;;;7.45;5.60;;;16.60;68.90;;;;;;10983725;32;20023;-70
2022/04/16 03:07:27;;;;;;;9.10;6.68;;;16.40;69.50;;;;;;10978990;32;20275;-70
2022/04/16 03:13:29;;;;;;;8.93;7.00;;;16.30;69.60;;;;;;10983095;32;20041;-70
2022/04/16 03:19:31;;;;;;;10.15;8.82;;;16.40;69.20;;;;;;10979047;32;20026;-70
2022/04/16 03:25:33;;;;;;;15.32;9.77;;;16.50;68.90;;;;;;10982869;32;20046;-70
2022/04/16 03:31:35;;;;;;;11.73;9.98;;;16.60;68.70;;;;;;10982804;32;20358;-70
2022/04/16 03:37:37;;;;;;;12.57;10.95;;;16.70;68.20;;;;;;10980512;32;20035;-70
2022/04/16 03:43:39;;;;;;;11.38;10.15;;;16.70;68.00;;;;;;10982078;32;20045;-70
2022/04/16 03:49:41;;;;;;;10.20;8.25;;;16.60;67.80;;;;;;10982104;32;20023;-69
2022/04/16 04:02:05;;;;;;;11.05;8.18;;;16.60;67.90;;;;;;10981563;32;20023;-70
2022/04/16 04:08:09;;;;;;;12.93;8.02;;;16.70;68.60;;;;;;10981372;32;20022;-70
2022/04/16 04:14:11;;;;;;;10.40;7.75;;;16.70;69.10;;;;;;10980125;32;20191;-70
2022/04/16 04:20:13;;;;;;;14.95;10.88;;;16.60;68.80;;;;;;10980237;32;20061;-69
2022/04/16 04:26:15;;;;;;;12.63;10.70;;;16.50;68.90;;;;;;10980710;32;20018;-70
2022/04/16 04:32:29;;;;;;;12.55;10.18;;;16.50;69.00;;;;;;10976957;32;20022;-70
2022/04/16 04:38:31;;;;;;;9.38;7.30;;;16.50;68.80;;;;;;10980264;32;20022;-70
2022/04/16 04:44:33;;;;;;;11.70;8.48;;;16.40;68.70;;;;;;10980119;32;20014;-69
2022/04/16 04:50:36;;;;;;;7.55;4.97;;;16.40;68.90;;;;;;10980020;32;20037;-70
2022/04/16 04:56:38;;;;;;;10.68;8.35;;;16.40;68.90;;;;;;10979669;32;20026;-70
2022/04/16 05:02:47;;;;;;;14.18;8.43;;;16.40;69.10;;;;;;10976658;32;20026;-69
2022/04/16 05:08:49;;;;;;;9.85;5.65;;;16.40;69.20;;;;;;10979440;32;20399;-69
2022/04/16 05:14:56;;;;;;;10.10;8.70;;;16.40;69.50;;;;;;10975175;32;20049;-70
2022/04/16 05:20:58;;;;;;;9.45;6.12;;;16.50;69.50;;;;;;10978863;32;20383;-70
2022/04/16 05:27:00;;;;;;;10.77;7.85;;;16.40;69.40;;;;;;10979172;32;20015;-69
2022/04/16 05:33:05;;;;;;;9.07;7.22;;;16.40;69.60;;;;;;10969757;32;20053;-70
2022/04/16 05:39:08;;;;;;;9.48;7.22;;;16.30;69.70;;;;;;10965230;32;20027;-70
2022/04/16 05:45:14;;;;;;;13.95;7.10;;;16.30;69.60;;;;;;10984455;32;20027;-70
2022/04/16 05:51:17;;;;;;;9.98;7.62;;;16.40;69.80;;;;;;10986316;32;20010;-70
2022/04/16 05:57:22;;;;;;;7.65;5.15;;;16.50;70.10;;;;;;10985457;32;20026;-69
2022/04/16 06:03:24;;;;;;;7.95;5.93;;;16.50;70.00;;;;;;10984646;32;20061;-69
2022/04/16 06:09:26;;;;;;;9.07;7.00;;;16.50;70.00;;;;;;10985807;32;20022;-70
2022/04/16 06:15:28;;;;;;;6.15;5.00;;;16.50;70.00;;;;;;10986129;32;20148;-69
2022/04/16 06:21:32;;;;;;;7.35;6.03;;;16.60;70.00;;;;;;10983393;32;20057;-70
2022/04/16 06:27:34;;;;;;;6.70;5.95;;;16.70;69.80;;;;;;10982759;32;20073;-69
2022/04/16 06:33:36;;;;;;;6.50;3.42;;;16.90;69.60;;;;;;10982487;32;20393;-69
2022/04/16 06:39:41;;;;;;;9.27;6.37;;;17.10;69.30;;;;;;10984507;32;20056;-69
2022/04/16 06:45:43;;;;;;;8.35;5.90;;;17.20;69.10;;;;;;10981456;32;20053;-69
2022/04/16 06:51:45;;;;;;;7.22;5.87;;;17.30;69.00;;;;;;10983910;32;20022;-69
2022/04/16 06:57:47;;;;;;;9.18;5.93;;;17.40;68.80;;;;;;10979694;32;20030;-70
2022/04/16 07:03:50;;;;;;;9.15;7.07;;;17.60;68.30;;;;;;10970370;32;20022;-69
2022/04/16 07:09:52;;;;;;;6.22;5.12;;;17.60;68.10;;;;;;10983240;32;20031;-70
2022/04/16 07:15:54;;;;;;;8.15;5.97;;;17.80;67.90;;;;;;10983465;32;20054;-69
2022/04/16 07:22:00;;;;;;;11.68;8.63;;;17.90;67.80;;;;;;10978858;32;20041;-69
2022/04/16 07:28:02;;;;;;;8.82;6.07;;;18.00;68.00;;;;;;10982991;32;20049;-69
2022/04/16 07:34:05;;;;;;;8.52;6.90;;;18.10;67.40;;;;;;10975640;32;20457;-69
2022/04/16 07:40:08;;;;;;;8.38;6.85;;;18.10;67.40;;;;;;10942983;32;20027;-69
2022/04/16 07:46:10;;;;;;;9.05;5.65;;;18.10;67.10;;;;;;10944717;32;20031;-70
2022/04/16 07:52:12;;;;;;;12.05;8.27;;;18.10;66.50;;;;;;10943748;32;20019;-69
2022/04/16 07:58:14;;;;;;;8.63;5.87;;;18.20;66.50;;;;;;10969803;32;20061;-69
2022/04/16 08:04:16;;;;;;;7.60;5.50;;;18.30;66.30;;;;;;10981512;32;20315;-70
2022/04/16 08:10:22;;;;;;;9.40;8.00;;;18.40;65.80;;;;;;10981555;32;20045;-70
2022/04/16 08:16:42;;;;;;;8.90;6.22;;;18.50;65.40;;;;;;10966933;32;20034;-70
2022/04/16 08:22:46;;;;;;;7.82;4.70;;;18.60;65.20;;;;;;10939226;32;20058;-68
2022/04/16 08:28:48;;;;;;;9.15;5.18;;;18.70;64.80;;;;;;10939040;32;20027;-69
2022/04/16 08:34:51;;;;;;;7.10;5.05;;;18.80;64.00;;;;;;10942978;32;20022;-69
2022/04/16 08:40:55;;;;;;;9.75;4.95;;;18.80;62.90;;;;;;10942812;32;20319;-69
2022/04/16 08:46:59;;;;;;;6.37;3.83;;;18.80;61.80;;;;;;10939322;32;20335;-69
2022/04/16 08:53:01;;;;;;;5.85;4.70;;;18.90;61.60;;;;;;10941383;32;20035;-68
2022/04/16 08:59:03;;;;;;;6.45;4.72;;;19.30;61.20;;;;;;10941835;32;20056;-69
2022/04/16 09:05:08;;;;;;;5.60;4.80;;;19.50;60.70;;;;;;10941897;32;20031;-69
2022/04/16 09:11:11;;;;;;;5.90;4.07;;;19.50;60.20;;;;;;10937994;32;20019;-72
2022/04/16 09:17:17;;;;;;;6.05;4.10;;;19.50;59.60;;;;;;10672892;27;10003222;-69
2022/04/16 09:23:21;;;;;;;5.65;2.87;;;19.30;59.30;;;;;;10974844;32;20023;-69
2022/04/16 09:29:24;;;;;;;4.53;3.12;;;19.40;59.30;;;;;;10973407;32;20053;-69
2022/04/16 09:35:30;;;;;;;7.30;3.70;;;19.70;58.90;;;;;;10973062;32;20038;-69
2022/04/16 09:41:51;;;;;;;5.85;3.10;;;19.50;57.30;;;;;;10977814;32;20053;-68
2022/04/16 09:47:53;;;;;;;5.10;2.90;;;19.60;57.90;;;;;;10978298;32;20022;-69
2022/04/16 09:53:56;;;;;;;5.05;3.25;;;19.90;57.90;;;;;;10976254;32;20058;-69
2022/04/16 10:00:03;;;;;;;4.32;2.10;;;20.30;56.50;;;;;;10978740;32;20034;-69
2022/04/16 10:06:15;;;;;;;10.45;3.47;;;20.10;56.60;;;;;;10979935;32;20366;-70
2022/04/16 10:19:21;;;;;;;4.63;2.70;;;20.70;55.80;;;;;;10981596;32;20027;-69
2022/04/16 10:25:34;;;;;;;3.78;2.30;;;20.80;54.40;;;;;;10893149;32;20023;-70
2022/04/16 10:31:49;;;;;;;6.15;2.85;;;21.10;53.20;;;;;;10904271;32;20145;-69
2022/04/16 10:37:54;;;;;;;3.30;2.55;;;21.40;52.00;;;;;;10905911;32;20065;-69
2022/04/16 10:43:57;;;;;;;3.20;2.05;;;21.40;51.40;;;;;;10905443;32;20051;-70
2022/04/16 10:49:59;;;;;;;4.97;2.65;;;21.70;52.40;;;;;;10901660;32;20023;-69
2022/04/16 10:56:54;;;;;;;6.25;2.10;;;21.80;51.40;;;;;;10955569;32;20039;-69
2022/04/16 11:03:09;;;;;;;17.52;2.85;;;21.50;49.90;;;;;;10828199;32;20024;-70
2022/04/16 11:09:20;;;;;;;5.53;2.17;;;21.60;50.30;;;;;;10829335;32;20393;-69
2022/04/16 11:15:47;;;;;;;3.60;1.67;;;21.80;49.10;;;;;;10829534;32;20032;-70
2022/04/16 11:22:17;;;;;;;2.70;1.58;;;21.60;48.90;;;;;;10829481;32;20020;-69
2022/04/16 11:34:53;;;;;;;3.17;1.87;;;21.70;49.20;;;;;;10828931;32;20024;-70
2022/04/16 11:40:59;;;;;;;3.30;1.70;;;22.20;47.20;;;;;;10944783;32;20018;-70
2022/04/16 11:47:05;;;;;;;2.83;1.62;;;22.60;47.70;;;;;;10944500;32;20050;-69
2022/04/16 11:53:28;;;;;;;7.35;1.83;;;23.00;47.50;;;;;;10906745;32;20317;-72
2022/04/16 11:59:31;;;;;;;2.70;1.75;;;23.10;46.00;;;;;;10906784;32;20046;-72
2022/04/16 12:05:33;;;;;;;3.37;1.92;;;23.30;46.70;;;;;;10903071;32;20110;-72
2022/04/16 12:12:03;;;;;;;3.55;1.73;;;23.30;44.60;;;;;;10906837;32;20090;-72
2022/04/16 12:18:19;;;;;;;6.10;2.17;;;23.60;44.50;;;;;;10906488;32;20047;-72
2022/04/16 12:24:28;;;;;;;5.07;2.15;;;23.30;44.20;;;;;;10906234;32;20414;-73
2022/04/16 12:30:32;;;;;;;3.08;1.95;;;22.70;45.30;;;;;;10906377;32;20300;-72
2022/04/16 12:36:57;;;;;;;5.60;1.90;;;22.20;47.60;;;;;;10928536;32;20023;-72
2022/04/16 12:43:00;;;;;;;1.95;1.40;;;21.60;47.50;;;;;;10938686;32;20039;-70
2022/04/16 12:49:02;;;;;;;3.12;1.45;;;21.20;47.50;;;;;;10940260;32;20301;-69
2022/04/16 12:55:04;;;;;;;2.25;1.60;;;20.80;48.20;;;;;;10939412;32;20035;-69
2022/04/16 13:01:06;;;;;;;1.33;1.00;;;20.70;49.80;;;;;;10940970;32;20343;-69
2022/04/16 13:07:08;;;;;;;3.37;1.30;;;20.50;49.70;;;;;;10940576;32;20061;-70
2022/04/16 13:13:10;;;;;;;4.03;1.55;;;20.40;49.90;;;;;;10941610;32;20331;-70
2022/04/16 13:19:17;;;;;;;3.28;1.52;;;20.30;49.80;;;;;;10938282;32;20053;-69
2022/04/16 13:25:19;;;;;;;0.93;0.77;;;20.20;50.20;;;;;;10938264;32;20441;-69
2022/04/16 13:31:22;;;;;;;2.40;1.62;;;19.90;50.80;;;;;;10942049;32;20045;-69
2022/04/16 13:37:57;;;;;;;1.58;0.98;;;19.80;51.70;;;;;;10941124;32;20023;-69
2022/04/16 13:43:59;;;;;;;3.10;1.90;;;19.70;52.50;;;;;;10941049;32;20319;-69
2022/04/16 13:50:01;;;;;;;12.77;2.67;;;19.50;53.50;;;;;;10941253;32;20327;-69
2022/04/16 13:56:19;;;;;;;4.55;2.10;;;19.50;55.40;;;;;;10949345;32;20394;-69
2022/04/16 14:02:22;;;;;;;2.47;1.63;;;19.50;55.90;;;;;;10947972;32;20355;-69
2022/04/16 14:08:26;;;;;;;7.28;3.60;;;19.60;55.40;;;;;;10948260;32;20399;-68
2022/04/16 14:14:29;;;;;;;5.05;2.78;;;19.80;56.90;;;;;;10947968;32;20425;-68
2022/04/16 14:20:31;;;;;;;5.80;2.08;;;19.70;57.60;;;;;;10947754;32;20030;-69
2022/04/16 14:26:36;;;;;;;4.50;2.33;;;19.50;57.60;;;;;;10947053;32;20054;-69
2022/04/16 14:32:38;;;;;;;2.83;2.05;;;19.30;57.90;;;;;;10932359;32;20054;-69
2022/04/16 14:38:42;;;;;;;2.92;1.98;;;19.10;58.80;;;;;;10944575;32;20305;-70
2022/04/16 14:44:51;;;;;;;2.40;1.62;;;19.20;58.50;;;;;;10945746;32;20064;-70
2022/04/16 14:50:53;;;;;;;3.85;2.60;;;19.00;58.70;;;;;;10919303;32;20396;-70
2022/04/16 14:56:56;;;;;;;6.57;3.20;;;18.80;59.30;;;;;;10894810;32;20031;-70
2022/04/16 15:03:03;;;;;;;3.55;2.65;;;18.70;60.40;;;;;;10905693;32;20065;-70
2022/04/16 15:09:08;;;;;;;2.47;1.80;;;18.60;60.60;;;;;;10926382;32;20093;-70
2022/04/16 15:15:10;;;;;;;5.07;2.85;;;18.60;60.30;;;;;;10945846;32;20023;-70
2022/04/16 15:21:13;;;;;;;5.90;2.62;;;18.50;61.50;;;;;;10932270;32;20024;-70
2022/04/16 15:27:16;;;;;;;1.67;1.55;;;18.60;61.80;;;;;;10945529;32;20039;-70
2022/04/16 15:33:18;;;;;;;1.77;1.30;;;18.70;62.10;;;;;;10943761;32;20023;-70
2022/04/16 15:39:20;;;;;;;2.90;1.60;;;18.80;61.80;;;;;;10945045;32;20038;-70
2022/04/16 15:45:23;;;;;;;4.30;1.65;;;18.90;62.00;;;;;;10944719;32;20053;-70
2022/04/16 15:51:32;;;;;;;2.15;1.52;;;18.90;62.00;;;;;;10940455;32;20069;-70
2022/04/16 15:57:34;;;;;;;4.03;1.80;;;18.90;61.70;;;;;;10940762;32;20351;-70
2022/04/16 16:03:38;;;;;;;4.12;1.90;;;18.90;61.60;;;;;;10944115;32;20034;-70
2022/04/16 16:09:41;;;;;;;2.58;1.67;;;18.90;62.20;;;;;;10943076;32;20053;-70
2022/04/16 16:15:43;;;;;;;4.60;2.87;;;18.90;62.10;;;;;;10910173;32;20050;-70
2022/04/16 16:21:45;;;;;;;4.47;2.37;;;18.90;62.70;;;;;;10905748;32;20057;-71
2022/04/16 16:27:47;;;;;;;7.80;3.85;;;18.70;63.40;;;;;;10934363;32;20027;-70
2022/04/16 16:33:49;;;;;;;4.65;2.78;;;18.60;63.70;;;;;;10942827;32;20417;-70
2022/04/16 16:39:52;;;;;;;4.07;2.87;;;18.50;64.50;;;;;;10942427;32;20057;-70
2022/04/16 16:45:55;;;;;;;5.80;2.80;;;18.40;65.30;;;;;;10942158;32;20319;-70
2022/04/16 16:51:57;;;;;;;3.65;2.47;;;18.30;65.90;;;;;;10942222;32;20026;-70
2022/04/16 16:58:00;;;;;;;5.85;4.03;;;18.20;65.80;;;;;;10919663;32;20331;-70
2022/04/16 17:10:44;;;;;;;5.30;3.17;;;18.30;66.00;;;;;;10903884;32;20042;-70
2022/04/16 17:23:27;;;;;;;5.03;3.12;;;18.30;66.30;;;;;;10903694;32;20012;-70
2022/04/16 17:29:43;;;;;;;3.90;2.70;;;18.20;66.10;;;;;;10903229;32;20016;-70
2022/04/16 17:35:46;;;;;;;7.07;3.75;;;18.20;66.10;;;;;;10899050;32;20023;-71
2022/04/16 17:42:09;;;;;;;4.72;3.25;;;18.00;66.60;;;;;;10903236;32;20015;-70
2022/04/16 17:48:11;;;;;;;7.12;3.28;;;18.00;66.60;;;;;;10900125;32;20442;-70
2022/04/16 17:54:13;;;;;;;8.05;4.70;;;18.10;66.50;;;;;;10899067;32;20023;-70
2022/04/16 18:00:19;;;;;;;6.10;3.75;;;18.00;66.60;;;;;;10899581;32;20042;-70
2022/04/16 18:06:23;;;;;;;6.22;4.85;;;17.90;66.70;;;;;;10902830;32;20339;-70
2022/04/16 18:12:27;;;;;;;5.43;4.03;;;17.80;66.70;;;;;;10901932;32;20523;-70
2022/04/16 18:18:30;;;;;;;4.75;3.70;;;17.80;66.60;;;;;;10904467;32;20035;-70
2022/04/16 18:24:32;;;;;;;5.87;4.62;;;17.70;66.90;;;;;;10924331;32;20486;-70
2022/04/16 18:30:34;;;;;;;7.07;4.87;;;17.80;66.80;;;;;;10919767;32;20072;-70
2022/04/16 18:36:39;;;;;;;9.95;5.43;;;17.70;66.50;;;;;;10925834;32;20058;-70
2022/04/16 18:42:44;;;;;;;8.48;4.30;;;17.60;65.50;;;;;;10946454;32;20035;-70
2022/04/16 18:48:46;;;;;;;2.78;1.52;;;17.50;65.20;;;;;;10932823;32;20031;-69
2022/04/16 18:54:48;;;;;;;6.20;2.00;;;17.30;63.20;;;;;;10941598;32;20045;-69
2022/04/16 19:07:14;;;;;;;4.87;2.10;;;17.00;63.10;;;;;;10944065;32;20046;-70
2022/04/16 19:13:16;;;;;;;1.98;1.42;;;16.80;63.30;;;;;;10907951;32;20402;-69
2022/04/16 19:19:19;;;;;;;1.30;1.20;;;16.60;64.80;;;;;;10908044;32;20262;-69
2022/04/16 19:25:24;;;;;;;1.60;1.37;;;16.30;65.50;;;;;;10907907;32;20327;-69
2022/04/16 19:31:27;;;;;;;1.73;1.12;;;16.20;66.50;;;;;;10904640;32;20015;-69
2022/04/16 19:37:30;;;;;;;2.47;1.55;;;16.10;66.90;;;;;;10907350;32;20027;-69
2022/04/16 19:43:32;;;;;;;1.40;1.17;;;16.00;66.80;;;;;;10903381;32;20027;-70
2022/04/16 19:49:34;;;;;;;1.42;1.20;;;15.90;67.50;;;;;;10907104;32;20093;-70
2022/04/16 19:55:37;;;;;;;1.37;0.93;;;16.00;66.60;;;;;;10906946;32;20092;-70
2022/04/16 20:01:40;;;;;;;4.30;1.80;;;15.90;65.50;;;;;;10890446;32;20039;-75
2022/04/16 20:07:42;;;;;;;1.30;1.17;;;15.70;66.70;;;;;;10906615;32;20396;-76
2022/04/16 20:13:44;;;;;;;1.10;0.90;;;15.60;67.40;;;;;;10906367;32;20031;-76
2022/04/16 20:19:47;;;;;;;2.08;1.33;;;15.50;67.70;;;;;;10912950;32;20085;-74
2022/04/16 20:25:49;;;;;;;1.85;1.37;;;15.50;67.60;;;;;;10905901;32;20293;-75
2022/04/16 20:31:51;;;;;;;13.98;1.35;;;15.50;67.40;;;;;;10892053;32;20027;-75
2022/04/16 20:37:53;;;;;;;2.30;1.45;;;15.50;67.60;;;;;;10902945;32;20036;-75
2022/04/16 20:50:19;;;;;;;3.42;1.15;;;15.50;68.10;;;;;;10904884;32;20343;-75
2022/04/16 20:56:21;;;;;;;1.58;1.42;;;15.50;68.10;;;;;;10887613;32;20394;-75
2022/04/16 21:03:03;;;;;;;0.90;0.90;;;15.40;67.60;;;;;;10904475;32;20062;-74
2022/04/16 21:09:05;;;;;;;0.98;0.95;;;15.40;68.50;;;;;;10786937;33;20024;-74
2022/04/16 21:15:07;;;;;;;3.42;1.02;;;15.40;68.90;;;;;;10789203;33;20059;-73
2022/04/16 21:21:09;;;;;;;0.80;0.80;;;15.50;69.30;;;;;;10776749;33;20020;-73
2022/04/16 21:27:11;;;;;;;0.85;0.70;;;15.70;69.40;;;;;;10790026;33;20047;-73
2022/04/16 21:33:15;;;;;;;2.72;1.48;;;15.80;69.50;;;;;;10789842;33;20024;-73
2022/04/16 21:39:19;;;;;;;1.77;1.05;;;15.90;69.30;;;;;;10789628;33;20028;-73
2022/04/16 21:45:51;;;;;;;0.97;0.90;;;15.80;69.50;;;;;;10881366;32;20023;-73
2022/04/16 21:51:54;;;;;;;1.00;1.00;;;15.80;69.50;;;;;;10904043;32;20054;-73
2022/04/16 21:57:57;;;;;;;1.50;1.40;;;15.80;69.80;;;;;;10900475;32;20027;-73
2022/04/16 22:03:59;;;;;;;2.30;1.40;;;15.80;69.80;;;;;;10902918;32;20046;-73
2022/04/16 22:10:01;;;;;;;0.90;0.85;;;15.70;69.90;;;;;;10903633;32;20289;-73
2022/04/16 22:16:04;;;;;;;1.55;1.15;;;15.60;70.10;;;;;;10908176;32;20050;-73
2022/04/16 22:22:14;;;;;;;1.02;0.95;;;15.50;70.20;;;;;;10910524;32;20053;-73
2022/04/16 22:28:16;;;;;;;1.15;1.02;;;15.50;70.30;;;;;;10893139;32;20042;-73
2022/04/16 22:34:18;;;;;;;1.23;1.00;;;15.40;70.20;;;;;;10892884;32;20023;-73
2022/04/16 22:46:41;;;;;;;4.30;1.95;;;15.20;70.60;;;;;;10909749;32;20351;-74
2022/04/16 22:52:44;;;;;;;4.55;1.95;;;15.00;68.80;;;;;;10892010;32;20015;-74
2022/04/16 22:58:46;;;;;;;3.85;1.55;;;14.70;67.70;;;;;;10909417;32;20396;-73
2022/04/16 23:05:05;;;;;;;2.90;1.87;;;14.60;68.20;;;;;;10908329;32;20020;-73
2022/04/16 23:11:07;;;;;;;6.23;2.17;;;14.70;68.80;;;;;;10909289;32;20328;-73
2022/04/16 23:17:10;;;;;;;2.95;1.45;;;14.80;69.00;;;;;;10904962;32;20050;-73
2022/04/16 23:23:12;;;;;;;6.60;2.28;;;14.70;68.10;;;;;;10907507;32;20022;-74
2022/04/16 23:29:14;;;;;;;3.50;1.80;;;14.50;67.40;;;;;;10907237;32;20020;-73
2022/04/16 23:35:18;;;;;;;2.78;2.17;;;14.30;67.70;;;;;;10894791;32;20058;-73
2022/04/16 23:41:20;;;;;;;2.70;1.77;;;14.20;67.20;;;;;;10894443;32;20049;-74
2022/04/16 23:47:24;;;;;;;2.33;1.73;;;14.20;68.00;;;;;;10907660;32;20035;-73
2022/04/16 23:53:32;;;;;;;1.87;1.17;;;14.20;68.50;;;;;;10907351;32;20046;-73
2022/04/16 23:59:35;;;;;;;2.75;1.90;;;14.10;68.40;;;;;;10907366;32;20096;-73
